createdAt,value
2022-08-05T00:01:36.287Z,3.53
2022-08-05T00:04:18.904Z,3.10
2022-08-05T00:06:47.190Z,3.10
2022-08-05T00:09:19.687Z,3.38
2022-08-05T00:11:49.598Z,3.00
2022-08-05T00:14:27.859Z,3.05
2022-08-05T00:16:56.587Z,3.10
2022-08-05T00:19:24.917Z,3.05
2022-08-05T00:21:59.954Z,2.80
2022-08-05T00:24:30.949Z,3.33
2022-08-05T00:26:59.365Z,3.00
2022-08-05T00:29:27.502Z,2.97
2022-08-05T00:32:10.970Z,3.10
2022-08-05T00:35:04.245Z,3.03
2022-08-05T00:37:35.733Z,2.80
2022-08-05T00:40:27.286Z,2.88
2022-08-05T00:43:00.867Z,3.40
2022-08-05T00:45:38.473Z,3.10
2022-08-05T00:48:10.129Z,3.17
2022-08-05T00:50:39.162Z,3.20
2022-08-05T00:53:16.040Z,3.45
2022-08-05T00:55:55.864Z,3.40
2022-08-05T00:58:27.572Z,3.72
2022-08-05T01:00:54.851Z,3.05
2022-08-05T01:03:23.486Z,3.03
2022-08-05T01:05:51.546Z,3.22
2022-08-05T01:08:40.220Z,2.92
2022-08-05T01:11:21.928Z,3.33
2022-08-05T01:14:15.313Z,2.90
2022-08-05T01:16:53.677Z,3.60
2022-08-05T01:20:02.368Z,3.47
2022-08-05T01:22:40.251Z,3.10
2022-08-05T01:25:40.691Z,3.10
2022-08-05T01:28:27.381Z,3.25
2022-08-05T01:31:04.777Z,3.40
2022-08-05T01:33:39.545Z,3.33
2022-08-05T01:36:16.161Z,3.25
2022-08-05T01:38:49.789Z,3.65
2022-08-05T01:41:25.782Z,3.42
2022-08-05T01:43:54.763Z,3.50
2022-08-05T01:46:43.184Z,4.03
2022-08-05T01:49:23.840Z,3.40
2022-08-05T01:51:59.733Z,3.45
2022-08-05T01:54:45.831Z,3.55
2022-08-05T01:58:30.189Z,3.28
2022-08-05T02:00:12.074Z,4.45
2022-08-05T02:03:06.753Z,3.65
2022-08-05T02:05:53.651Z,4.47
2022-08-05T02:08:30.772Z,3.45
2022-08-05T02:11:12.056Z,3.67
2022-08-05T02:13:53.636Z,3.50
2022-08-05T02:19:10.426Z,3.47
2022-08-05T02:21:49.254Z,3.80
2022-08-05T02:24:23.238Z,4.35
2022-08-05T02:26:59.288Z,4.18
2022-08-05T02:29:59.486Z,3.63
2022-08-05T02:32:23.856Z,3.40
2022-08-05T02:34:55.096Z,3.63
2022-08-05T02:37:23.936Z,3.20
2022-08-05T02:39:53.401Z,3.97
2022-08-05T02:42:26.178Z,3.70
2022-08-05T02:44:56.790Z,3.17
2022-08-05T02:47:25.117Z,3.10
2022-08-05T02:50:13.919Z,3.80
2022-08-05T02:52:46.852Z,3.58
2022-08-05T02:55:14.592Z,3.47
2022-08-05T02:58:11.882Z,3.38
2022-08-05T03:00:39.275Z,3.40
2022-08-05T03:03:10.315Z,3.47
2022-08-05T03:06:54.363Z,3.58
2022-08-05T03:08:29.669Z,3.60
2022-08-05T03:11:55.742Z,3.47
2022-08-05T03:13:52.252Z,3.38
2022-08-05T03:19:00.104Z,4.32
2022-08-05T03:21:29.753Z,3.10
2022-08-05T03:24:09.799Z,3.40
2022-08-05T03:26:40.540Z,3.85
2022-08-05T03:29:07.392Z,3.10
2022-08-05T03:31:55.420Z,3.40
2022-08-05T03:34:31.584Z,3.10
2022-08-05T03:36:58.778Z,3.78
2022-08-05T03:39:27.112Z,3.60
2022-08-05T03:41:56.345Z,3.75
2022-08-05T03:44:24.816Z,3.58
2022-08-05T03:46:55.896Z,3.58
2022-08-05T03:49:24.223Z,3.53
2022-08-05T03:52:50.073Z,3.20
2022-08-05T03:55:52.639Z,3.67
2022-08-05T03:57:46.840Z,3.50
2022-08-05T04:00:16.599Z,3.50
2022-08-05T04:02:57.532Z,3.20
2022-08-05T04:05:36.503Z,3.10
2022-08-05T04:08:14.490Z,3.83
2022-08-05T04:10:58.508Z,3.65
2022-08-05T04:13:51.222Z,3.55
2022-08-05T04:16:16.659Z,3.30
2022-08-05T04:18:54.026Z,3.38
2022-08-05T04:22:09.389Z,2.97
2022-08-05T04:24:19.529Z,3.42
2022-08-05T04:26:50.666Z,3.60
2022-08-05T04:29:18.891Z,3.17
2022-08-05T04:31:48.303Z,3.28
2022-08-05T04:34:33.426Z,3.60
2022-08-05T04:37:01.464Z,3.80
2022-08-05T04:39:35.482Z,3.20
2022-08-05T04:42:05.129Z,3.55
2022-08-05T04:44:32.279Z,3.20
2022-08-05T04:47:00.001Z,3.65
2022-08-05T04:50:02.025Z,3.47
2022-08-05T04:52:28.269Z,3.38
2022-08-05T04:54:56.905Z,2.97
2022-08-05T04:57:29.315Z,3.20
2022-08-05T05:00:05.877Z,3.70
2022-08-05T05:02:41.260Z,3.83
2022-08-05T05:05:16.538Z,3.40
2022-08-05T05:07:56.632Z,3.95
2022-08-05T05:10:33.796Z,3.50
2022-08-05T05:13:03.888Z,3.53
2022-08-05T05:15:57.109Z,3.67
2022-08-05T05:18:31.627Z,3.33
2022-08-05T05:21:05.583Z,3.83
2022-08-05T05:23:39.144Z,3.30
2022-08-05T05:26:28.816Z,3.80
2022-08-05T05:28:59.964Z,3.65
2022-08-05T05:31:35.881Z,3.75
2022-08-05T05:34:02.068Z,3.42
2022-08-05T05:36:35.447Z,3.75
2022-08-05T05:39:04.631Z,3.85
2022-08-05T05:41:40.121Z,4.00
2022-08-05T05:44:26.995Z,3.35
2022-08-05T05:47:04.295Z,3.58
2022-08-05T05:49:34.254Z,3.55
2022-08-05T05:52:05.915Z,3.50
2022-08-05T05:54:50.659Z,3.55
2022-08-05T05:57:19.687Z,3.58
2022-08-05T05:59:48.820Z,3.58
2022-08-05T06:02:17.103Z,3.97
2022-08-05T06:05:00.463Z,3.53
2022-08-05T06:07:41.213Z,3.47
2022-08-05T06:10:10.829Z,3.90
2022-08-05T06:12:39.766Z,3.70
2022-08-05T06:15:13.531Z,3.78
2022-08-05T06:17:52.726Z,4.03
2022-08-05T06:20:21.731Z,3.30
2022-08-05T06:22:49.127Z,2.90
2022-08-05T06:25:59.142Z,3.45
2022-08-05T06:28:11.225Z,3.63
2022-08-05T06:30:48.592Z,4.38
2022-08-05T06:33:19.250Z,3.35
2022-08-05T06:36:03.528Z,3.58
2022-08-05T06:38:37.158Z,4.22
2022-08-05T06:41:08.240Z,3.30
2022-08-05T06:43:57.808Z,4.30
2022-08-05T06:46:23.946Z,3.70
2022-08-05T06:49:01.206Z,5.73
2022-08-05T06:51:30.914Z,3.42
2022-08-05T06:54:04.143Z,3.40
2022-08-05T06:56:33.854Z,3.22
2022-08-05T06:59:09.626Z,3.35
2022-08-05T07:01:37.088Z,3.30
2022-08-05T07:04:08.266Z,3.85
2022-08-05T07:06:35.646Z,2.90
2022-08-05T07:09:05.241Z,3.10
2022-08-05T07:11:39.722Z,3.08
2022-08-05T07:14:29.661Z,2.90
2022-08-05T07:18:00.304Z,3.20
2022-08-05T07:22:36.330Z,3.03
2022-08-05T07:25:23.117Z,3.13
2022-08-05T07:28:00.700Z,2.60
2022-08-05T07:30:33.715Z,2.67
2022-08-05T07:33:09.321Z,2.40
2022-08-05T07:36:03.942Z,2.63
2022-08-05T07:38:33.173Z,2.97
2022-08-05T07:42:08.760Z,2.83
2022-08-05T07:43:56.987Z,2.70
2022-08-05T07:46:26.571Z,2.58
2022-08-05T07:49:01.470Z,2.58
2022-08-05T07:51:36.949Z,3.10
2022-08-05T07:54:08.498Z,3.10
2022-08-05T07:57:02.421Z,2.53
2022-08-05T07:59:38.908Z,2.80
2022-08-05T08:02:15.820Z,3.03
2022-08-05T08:04:46.716Z,2.67
2022-08-05T08:07:15.056Z,2.67
2022-08-05T08:09:43.726Z,3.13
2022-08-05T08:12:37.053Z,2.55
2022-08-05T08:15:02.397Z,2.90
2022-08-05T08:17:32.744Z,2.92
2022-08-05T08:20:42.795Z,2.75
2022-08-05T08:22:59.455Z,2.70
2022-08-05T08:26:00.197Z,2.92
2022-08-05T08:28:35.498Z,2.83
2022-08-05T08:31:08.080Z,2.72
2022-08-05T08:33:37.868Z,2.85
2022-08-05T08:38:59.165Z,2.67
2022-08-05T08:41:52.050Z,2.78
2022-08-05T08:45:18.772Z,2.28
2022-08-05T08:47:47.102Z,2.70
2022-08-05T08:50:23.341Z,2.55
2022-08-05T08:52:54.213Z,2.95
2022-08-05T08:56:02.035Z,2.97
2022-08-05T08:58:13.373Z,3.03
2022-08-05T09:00:44.543Z,2.47
2022-08-05T09:03:12.590Z,2.63
2022-08-05T09:06:07.746Z,2.30
2022-08-05T09:08:30.839Z,2.22
2022-08-05T09:10:59.151Z,2.78
2022-08-05T09:13:31.396Z,2.60
2022-08-05T09:16:02.321Z,3.08
2022-08-05T09:18:32.322Z,2.55
2022-08-05T09:20:59.387Z,3.00
2022-08-05T09:23:37.339Z,2.85
2022-08-05T09:26:20.835Z,3.10
2022-08-05T09:28:49.701Z,2.53
2022-08-05T09:31:43.286Z,2.92
2022-08-05T09:34:11.482Z,2.40
2022-08-05T09:36:56.036Z,2.75
2022-08-05T09:39:45.679Z,2.70
2022-08-05T09:42:28.489Z,2.50
2022-08-05T09:44:57.429Z,2.63
2022-08-05T09:47:55.611Z,2.88
2022-08-05T09:50:38.906Z,2.90
2022-08-05T09:53:22.696Z,2.85
2022-08-05T09:56:04.448Z,2.65
2022-08-05T09:58:41.701Z,2.78
2022-08-05T10:01:32.150Z,2.08
2022-08-05T10:04:10.303Z,2.33
2022-08-05T10:06:58.931Z,2.93
2022-08-05T10:09:29.247Z,2.78
2022-08-05T10:12:18.825Z,2.40
2022-08-05T10:15:20.057Z,2.50
2022-08-05T10:18:06.379Z,2.65
2022-08-05T10:20:36.653Z,2.78
2022-08-05T10:23:05.488Z,3.30
2022-08-05T10:25:49.342Z,4.72
2022-08-05T10:28:19.343Z,2.72
2022-08-05T10:32:52.562Z,2.83
2022-08-05T10:33:45.592Z,3.10
2022-08-05T10:36:23.563Z,2.88
2022-08-05T10:39:01.153Z,2.53
2022-08-05T10:41:46.504Z,2.55
2022-08-05T10:44:18.660Z,2.90
2022-08-05T10:46:50.898Z,2.78
2022-08-05T10:49:27.562Z,2.70
2022-08-05T10:52:05.375Z,2.80
2022-08-05T10:55:06.006Z,2.75
2022-08-05T10:57:36.084Z,3.00
2022-08-05T11:00:20.052Z,2.83
2022-08-05T11:03:24.372Z,2.88
2022-08-05T11:06:08.391Z,2.88
2022-08-05T11:09:17.422Z,2.80
2022-08-05T11:11:53.653Z,2.95
2022-08-05T11:14:42.915Z,2.85
2022-08-05T11:17:59.747Z,2.60
2022-08-05T11:20:39.120Z,2.90
2022-08-05T11:23:33.549Z,3.10
2022-08-05T11:26:16.524Z,2.88
2022-08-05T11:28:56.722Z,2.60
2022-08-05T11:31:58.617Z,2.85
2022-08-05T11:34:36.735Z,3.08
2022-08-05T11:37:06.323Z,2.78
2022-08-05T11:39:55.311Z,2.90
2022-08-05T11:42:28.602Z,3.20
2022-08-05T11:45:03.431Z,3.13
2022-08-05T11:47:48.932Z,2.72
2022-08-05T11:50:20.497Z,3.00
2022-08-05T11:52:49.508Z,2.78
2022-08-05T11:55:18.375Z,3.22
2022-08-05T11:58:10.568Z,3.20
2022-08-05T12:00:38.462Z,2.83
2022-08-05T12:03:28.746Z,3.10
2022-08-05T12:06:06.499Z,3.05
2022-08-05T12:08:51.607Z,2.95
2022-08-05T12:11:22.032Z,3.17
2022-08-05T12:14:03.930Z,3.30
2022-08-05T12:16:45.644Z,3.40
2022-08-05T12:20:26.248Z,3.40
2022-08-05T12:22:09.472Z,2.90
2022-08-05T12:24:49.604Z,3.40
2022-08-05T12:27:25.444Z,3.20
2022-08-05T12:30:00.573Z,3.25
2022-08-05T12:32:36.503Z,3.15
2022-08-05T12:35:11.574Z,3.00
2022-08-05T12:37:49.679Z,3.15
2022-08-05T12:40:26.738Z,2.55
2022-08-05T12:42:56.881Z,2.45
2022-08-05T12:45:42.478Z,2.30
2022-08-05T12:48:32.486Z,2.30
2022-08-05T12:52:09.897Z,2.17
2022-08-05T12:54:16.533Z,2.20
2022-08-05T12:56:57.806Z,2.00
2022-08-05T12:59:46.901Z,2.20
2022-08-05T13:02:30.298Z,1.90
2022-08-05T13:05:12.560Z,2.00
2022-08-05T13:08:00.665Z,1.80
2022-08-05T13:10:32.973Z,2.00
2022-08-05T13:15:49.258Z,1.90
2022-08-05T13:18:20.088Z,2.15
2022-08-05T13:20:49.911Z,2.08
2022-08-05T13:23:22.118Z,1.70
2022-08-05T13:25:59.310Z,2.13
2022-08-05T13:28:28.525Z,2.17
2022-08-05T13:30:57.034Z,2.08
2022-08-05T13:34:22.288Z,1.80
2022-08-05T13:36:14.692Z,2.00
2022-08-05T13:38:43.221Z,1.90
2022-08-05T13:41:11.766Z,1.80
2022-08-05T13:43:44.737Z,1.92
2022-08-05T13:46:35.703Z,1.90
2022-08-05T13:49:11.542Z,2.08
2022-08-05T13:51:40.852Z,2.05
2022-08-05T13:54:12.417Z,1.98
2022-08-05T13:56:45.271Z,1.98
2022-08-05T13:59:23.780Z,1.90
2022-08-05T14:01:58.116Z,1.88
2022-08-05T14:04:52.280Z,1.90
2022-08-05T14:07:25.425Z,1.98
2022-08-05T14:10:28.560Z,2.05
2022-08-05T14:12:57.519Z,2.17
2022-08-05T14:16:04.718Z,1.83
2022-08-05T14:18:17.708Z,1.92
2022-08-05T14:20:48.390Z,2.08
2022-08-05T14:23:24.970Z,2.10
2022-08-05T14:25:58.896Z,1.83
2022-08-05T14:28:30.085Z,2.13
2022-08-05T14:31:00.561Z,1.70
2022-08-05T14:33:32.533Z,1.90
2022-08-05T14:36:21.249Z,2.05
2022-08-05T14:38:49.532Z,2.00
2022-08-05T14:41:19.116Z,1.80
2022-08-05T14:44:02.724Z,2.33
2022-08-05T14:46:36.234Z,2.10
2022-08-05T14:49:09.386Z,2.30
2022-08-05T14:51:42.792Z,2.17
2022-08-05T14:54:27.665Z,2.15
2022-08-05T14:56:57.548Z,1.90
2022-08-05T14:59:29.709Z,2.00
2022-08-05T15:02:15.105Z,2.30
2022-08-05T15:04:51.751Z,2.33
2022-08-05T15:08:05.675Z,2.17
2022-08-05T15:10:10.008Z,2.00
2022-08-05T15:12:59.628Z,1.98
2022-08-05T15:15:53.824Z,2.40
2022-08-05T15:18:17.251Z,1.90
2022-08-05T15:20:45.067Z,2.30
2022-08-05T15:23:14.700Z,2.25
2022-08-05T15:25:53.408Z,2.30
2022-08-05T15:28:27.661Z,2.30
2022-08-05T15:30:57.407Z,2.20
2022-08-05T15:34:05.686Z,2.30
2022-08-05T15:36:17.224Z,2.28
2022-08-05T15:40:41.433Z,2.40
2022-08-05T15:41:57.475Z,2.30
2022-08-05T15:44:27.930Z,2.30
2022-08-05T15:47:00.889Z,2.40
2022-08-05T15:49:52.076Z,2.30
2022-08-05T15:52:53.871Z,2.45
2022-08-05T15:55:04.249Z,2.28
2022-08-05T15:57:33.011Z,2.47
2022-08-05T16:00:05.834Z,2.47
2022-08-05T16:02:33.715Z,2.40
2022-08-05T16:05:01.680Z,2.03
2022-08-05T16:07:29.396Z,2.40
2022-08-05T16:09:59.367Z,2.40
2022-08-05T16:12:26.660Z,2.33
2022-08-05T16:14:54.089Z,2.58
2022-08-05T16:17:21.270Z,2.33
2022-08-05T16:20:04.421Z,2.60
2022-08-05T16:22:36.552Z,2.50
2022-08-05T16:25:09.845Z,2.50
2022-08-05T16:28:00.715Z,2.28
2022-08-05T16:30:28.785Z,2.47
2022-08-05T16:32:58.070Z,2.30
2022-08-05T16:35:28.547Z,2.30
2022-08-05T16:38:03.148Z,2.50
2022-08-05T16:40:47.828Z,2.50
2022-08-05T16:43:30.453Z,2.47
2022-08-05T16:46:03.906Z,2.50
2022-08-05T16:48:40.563Z,2.80
2022-08-05T16:51:10.015Z,2.53
2022-08-05T16:54:02.438Z,2.90
2022-08-05T16:56:31.130Z,2.50
2022-08-05T16:59:07.540Z,2.60
2022-08-05T17:01:53.205Z,2.42
2022-08-05T17:04:28.994Z,2.67
2022-08-05T17:07:03.586Z,2.47
2022-08-05T17:09:58.201Z,2.47
2022-08-05T17:12:51.369Z,2.47
2022-08-05T17:15:19.467Z,2.63
2022-08-05T17:17:54.500Z,2.60
2022-08-05T17:20:25.186Z,3.20
2022-08-05T17:22:57.624Z,2.85
2022-08-05T17:25:39.460Z,3.17
2022-08-05T17:28:09.934Z,3.10
2022-08-05T17:30:42.540Z,3.40
2022-08-05T17:33:20.325Z,2.92
2022-08-05T17:36:07.329Z,3.17
2022-08-05T17:38:34.576Z,3.47
2022-08-05T17:41:02.154Z,3.03
2022-08-05T17:43:50.342Z,3.45
2022-08-05T17:46:20.393Z,3.25
2022-08-05T17:48:48.343Z,3.42
2022-08-05T17:51:21.587Z,3.83
2022-08-05T17:53:50.881Z,3.60
2022-08-05T17:56:22.819Z,3.35
2022-08-05T17:58:52.571Z,3.20
2022-08-05T18:01:20.029Z,3.45
2022-08-05T18:03:59.232Z,3.40
2022-08-05T18:06:33.671Z,3.15
2022-08-05T18:09:03.707Z,3.10
2022-08-05T18:11:32.964Z,3.20
2022-08-05T18:14:07.486Z,3.10
2022-08-05T18:16:46.806Z,3.25
2022-08-05T18:19:23.104Z,3.20
2022-08-05T18:22:07.291Z,3.40
2022-08-05T18:24:37.950Z,3.37
2022-08-05T18:27:12.524Z,2.95
2022-08-05T18:29:53.687Z,3.50
2022-08-05T18:32:28.284Z,3.40
2022-08-05T18:34:57.933Z,3.42
2022-08-05T18:37:34.913Z,3.30
2022-08-05T18:40:34.426Z,3.75
2022-08-05T18:42:59.142Z,3.42
2022-08-05T18:45:41.333Z,3.33
2022-08-05T18:48:11.907Z,3.58
2022-08-05T18:52:06.555Z,3.55
2022-08-05T18:53:53.700Z,3.42
2022-08-05T18:56:25.215Z,3.63
2022-08-05T18:59:00.702Z,3.72
2022-08-05T19:01:47.306Z,3.50
2022-08-05T19:04:23.918Z,3.50
2022-08-05T19:06:53.761Z,3.80
2022-08-05T19:09:21.924Z,3.40
2022-08-05T19:12:00.768Z,3.22
2022-08-05T19:14:44.425Z,3.38
2022-08-05T19:17:19.918Z,3.75
2022-08-05T19:19:50.702Z,4.10
2022-08-05T19:22:27.421Z,3.60
2022-08-05T19:25:00.920Z,3.63
2022-08-05T19:27:30.809Z,3.40
2022-08-05T19:30:02.797Z,3.80
2022-08-05T19:32:30.570Z,3.63
2022-08-05T19:34:58.128Z,3.80
2022-08-05T19:37:47.291Z,3.70
2022-08-05T19:40:15.066Z,4.07
2022-08-05T19:42:42.846Z,3.95
2022-08-05T19:45:30.570Z,4.03
2022-08-05T19:48:06.459Z,4.05
2022-08-05T19:50:35.543Z,4.32
2022-08-05T19:53:09.750Z,4.60
2022-08-05T19:56:15.703Z,4.28
2022-08-05T19:58:29.133Z,3.88
2022-08-05T20:00:59.611Z,4.10
2022-08-05T20:03:38.791Z,4.10
2022-08-05T20:06:15.957Z,3.95
2022-08-05T20:08:58.270Z,4.25
2022-08-05T20:11:28.515Z,4.30
2022-08-05T20:14:12.159Z,4.03
2022-08-05T20:16:42.102Z,4.13
2022-08-05T20:19:11.365Z,4.13
2022-08-05T20:21:41.125Z,3.80
2022-08-05T20:24:18.839Z,4.40
2022-08-05T20:26:46.910Z,3.72
2022-08-05T20:29:27.391Z,3.63
2022-08-05T20:31:58.341Z,3.17
2022-08-05T20:34:30.063Z,3.08
2022-08-05T20:36:59.984Z,3.22
2022-08-05T20:39:35.563Z,3.30
2022-08-05T20:42:05.882Z,3.17
2022-08-05T20:44:37.976Z,3.40
2022-08-05T20:47:08.331Z,3.50
2022-08-05T20:49:39.553Z,3.78
2022-08-05T20:52:08.766Z,3.53
2022-08-05T20:54:55.546Z,3.38
2022-08-05T20:57:43.586Z,3.45
2022-08-05T21:00:40.962Z,3.55
2022-08-05T21:03:07.812Z,2.95
2022-08-05T21:05:47.971Z,2.97
2022-08-05T21:08:35.959Z,3.25
2022-08-05T21:11:51.608Z,3.30
2022-08-05T21:14:03.001Z,3.05
2022-08-05T21:16:30.954Z,2.90
2022-08-05T21:18:59.894Z,3.28
2022-08-05T21:21:39.365Z,2.95
2022-08-05T21:24:13.494Z,2.45
2022-08-05T21:26:53.495Z,3.10
2022-08-05T21:29:31.369Z,3.05
2022-08-05T21:32:02.920Z,3.03
2022-08-05T21:34:31.775Z,3.00
2022-08-05T21:37:01.119Z,3.08
2022-08-05T21:39:40.375Z,2.90
2022-08-05T21:42:30.880Z,3.10
2022-08-05T21:45:02.028Z,2.58
2022-08-05T21:47:55.823Z,2.88
2022-08-05T21:50:17.374Z,2.70
2022-08-05T21:52:47.491Z,3.05
2022-08-05T21:55:14.987Z,2.60
2022-08-05T21:57:42.932Z,2.80
2022-08-05T22:00:14.016Z,3.00
2022-08-05T22:02:42.724Z,3.00
2022-08-05T22:05:11.994Z,2.92
2022-08-05T22:07:58.229Z,3.00
2022-08-05T22:10:27.625Z,3.08
2022-08-05T22:12:58.907Z,2.60
2022-08-05T22:16:04.631Z,2.88
2022-08-05T22:18:25.630Z,2.75
2022-08-05T22:20:53.846Z,3.10
2022-08-05T22:24:01.946Z,2.88
2022-08-05T22:26:49.608Z,3.00
2022-08-05T22:29:26.632Z,3.08
2022-08-05T22:32:02.626Z,2.97
2022-08-05T22:34:33.741Z,2.92
2022-08-05T22:37:04.033Z,2.63
2022-08-05T22:39:33.935Z,2.90
2022-08-05T22:42:09.336Z,2.70
2022-08-05T22:44:53.399Z,3.00
2022-08-05T22:47:30.562Z,2.65
2022-08-05T22:50:19.663Z,3.00
2022-08-05T22:52:51.413Z,3.00
2022-08-05T22:55:21.866Z,2.60
2022-08-05T22:57:51.599Z,2.67
2022-08-05T23:00:21.498Z,2.70
2022-08-05T23:02:50.476Z,2.90
2022-08-05T23:05:22.371Z,2.63
2022-08-05T23:07:51.856Z,3.08
2022-08-05T23:10:24.197Z,2.65
2022-08-05T23:12:55.852Z,3.15
2022-08-05T23:15:29.543Z,2.83
2022-08-05T23:18:03.725Z,3.33
2022-08-05T23:20:37.430Z,2.67
2022-08-05T23:23:08.708Z,2.70
2022-08-05T23:25:51.305Z,2.90
2022-08-05T23:28:27.665Z,2.70
2022-08-05T23:31:14.817Z,2.60
2022-08-05T23:34:04.761Z,2.83
2022-08-05T23:36:40.332Z,2.78
2022-08-05T23:39:31.942Z,2.60
2022-08-05T23:42:05.285Z,3.05
2022-08-05T23:44:36.455Z,2.92
2022-08-05T23:47:15.609Z,3.30
2022-08-05T23:49:45.730Z,2.90
2022-08-05T23:52:49.440Z,2.85
2022-08-05T23:55:19.485Z,3.03
2022-08-05T23:57:51.047Z,2.72
